sensor_id;sensor_type;location;lat;lon;timestamp;temperature;humidity
4215;DHT22;2121;48.062;7.850;2023-03-01T00:01:11;-4.00;99.90
4215;DHT22;2121;48.062;7.850;2023-03-01T00:03:39;-4.10;99.90
4215;DHT22;2121;48.062;7.850;2023-03-01T00:06:05;-4.10;99.90
4215;DHT22;2121;48.062;7.850;2023-03-01T00:08:32;-4.10;99.90
4215;DHT22;2121;48.062;7.850;2023-03-01T00:11:08;-4.10;99.90
4215;DHT22;2121;48.062;7.850;2023-03-01T00:13:37;-4.10;99.90
4215;DHT22;2121;48.062;7.850;2023-03-01T00:16:05;-4.10;99.90
4215;DHT22;2121;48.062;7.850;2023-03-01T00:18:33;-4.10;99.90
4215;DHT22;2121;48.062;7.850;2023-03-01T00:20:59;-4.00;99.90
4215;DHT22;2121;48.062;7.850;2023-03-01T00:23:25;-4.00;99.90
4215;DHT22;2121;48.062;7.850;2023-03-01T00:25:51;-4.00;99.90
4215;DHT22;2121;48.062;7.850;2023-03-01T00:28:18;-4.20;99.90
4215;DHT22;2121;48.062;7.850;2023-03-01T00:30:44;-4.20;99.90
4215;DHT22;2121;48.062;7.850;2023-03-01T00:33:10;-4.30;99.90
4215;DHT22;2121;48.062;7.850;2023-03-01T00:35:36;-4.20;99.90
4215;DHT22;2121;48.062;7.850;2023-03-01T00:38:02;-4.20;99.90
4215;DHT22;2121;48.062;7.850;2023-03-01T00:40:31;-4.30;99.90
4215;DHT22;2121;48.062;7.850;2023-03-01T00:42:58;-4.10;99.90
4215;DHT22;2121;48.062;7.850;2023-03-01T00:45:24;-4.10;99.90
4215;DHT22;2121;48.062;7.850;2023-03-01T00:47:51;-4.20;99.90
4215;DHT22;2121;48.062;7.850;2023-03-01T00:50:18;-4.30;99.90
4215;DHT22;2121;48.062;7.850;2023-03-01T00:52:44;-4.20;99.90
4215;DHT22;2121;48.062;7.850;2023-03-01T00:55:10;-4.30;99.90
4215;DHT22;2121;48.062;7.850;2023-03-01T00:57:36;-4.30;99.90
4215;DHT22;2121;48.062;7.850;2023-03-01T01:00:06;-4.10;99.90
4215;DHT22;2121;48.062;7.850;2023-03-01T01:02:33;-4.00;99.90
4215;DHT22;2121;48.062;7.850;2023-03-01T01:04:59;-3.90;99.90
4215;DHT22;2121;48.062;7.850;2023-03-01T01:07:25;-4.00;99.90
4215;DHT22;2121;48.062;7.850;2023-03-01T01:09:51;-4.00;99.90
4215;DHT22;2121;48.062;7.850;2023-03-01T01:12:17;-3.80;99.90
4215;DHT22;2121;48.062;7.850;2023-03-01T01:14:42;-3.60;99.90
4215;DHT22;2121;48.062;7.850;2023-03-01T01:17:08;-3.60;99.90
4215;DHT22;2121;48.062;7.850;2023-03-01T01:19:34;-3.50;99.90
4215;DHT22;2121;48.062;7.850;2023-03-01T01:21:59;-3.60;99.90
4215;DHT22;2121;48.062;7.850;2023-03-01T01:24:25;-3.70;99.90
4215;DHT22;2121;48.062;7.850;2023-03-01T01:26:51;-3.80;99.90
4215;DHT22;2121;48.062;7.850;2023-03-01T01:29:17;-3.80;99.90
4215;DHT22;2121;48.062;7.850;2023-03-01T01:31:43;-3.90;99.90
4215;DHT22;2121;48.062;7.850;2023-03-01T01:34:16;-4.10;99.90
4215;DHT22;2121;48.062;7.850;2023-03-01T01:36:48;-4.10;99.90
4215;DHT22;2121;48.062;7.850;2023-03-01T01:39:15;-4.20;99.90
4215;DHT22;2121;48.062;7.850;2023-03-01T01:41:41;-4.30;99.90
4215;DHT22;2121;48.062;7.850;2023-03-01T01:44:22;-4.30;99.90
4215;DHT22;2121;48.062;7.850;2023-03-01T01:47:16;-4.30;99.90
4215;DHT22;2121;48.062;7.850;2023-03-01T01:49:50;-4.20;99.90
4215;DHT22;2121;48.062;7.850;2023-03-01T01:52:21;-4.40;99.90
4215;DHT22;2121;48.062;7.850;2023-03-01T01:55:17;-4.40;99.90
4215;DHT22;2121;48.062;7.850;2023-03-01T01:57:50;-4.50;99.90
4215;DHT22;2121;48.062;7.850;2023-03-01T02:00:21;-4.50;99.90
4215;DHT22;2121;48.062;7.850;2023-03-01T02:02:52;-4.50;99.90
4215;DHT22;2121;48.062;7.850;2023-03-01T02:05:36;-4.50;99.90
4215;DHT22;2121;48.062;7.850;2023-03-01T02:08:05;-4.60;99.90
4215;DHT22;2121;48.062;7.850;2023-03-01T02:10:33;-4.60;99.90
4215;DHT22;2121;48.062;7.850;2023-03-01T02:13:00;-4.70;99.90
4215;DHT22;2121;48.062;7.850;2023-03-01T02:15:26;-4.70;99.90
4215;DHT22;2121;48.062;7.850;2023-03-01T02:17:53;-4.70;99.90
4215;DHT22;2121;48.062;7.850;2023-03-01T02:20:40;-4.70;99.90
4215;DHT22;2121;48.062;7.850;2023-03-01T02:23:28;-4.70;99.90
4215;DHT22;2121;48.062;7.850;2023-03-01T02:26:02;-4.50;99.90
4215;DHT22;2121;48.062;7.850;2023-03-01T02:28:34;-4.60;99.90
4215;DHT22;2121;48.062;7.850;2023-03-01T02:31:04;-4.70;99.90
4215;DHT22;2121;48.062;7.850;2023-03-01T02:33:51;-4.80;99.90
4215;DHT22;2121;48.062;7.850;2023-03-01T02:36:39;-4.80;99.90
4215;DHT22;2121;48.062;7.850;2023-03-01T02:39:26;-4.80;99.90
4215;DHT22;2121;48.062;7.850;2023-03-01T02:41:56;-4.90;99.90
4215;DHT22;2121;48.062;7.850;2023-03-01T02:44:22;-4.90;99.90
4215;DHT22;2121;48.062;7.850;2023-03-01T02:46:53;-5.00;99.90
4215;DHT22;2121;48.062;7.850;2023-03-01T02:49:27;-4.90;99.90
4215;DHT22;2121;48.062;7.850;2023-03-01T02:55:09;-4.90;99.90
4215;DHT22;2121;48.062;7.850;2023-03-01T02:57:40;-5.00;99.90
4215;DHT22;2121;48.062;7.850;2023-03-01T03:00:17;-5.00;99.90
4215;DHT22;2121;48.062;7.850;2023-03-01T03:02:49;-4.80;99.90
4215;DHT22;2121;48.062;7.850;2023-03-01T03:05:30;-4.60;99.90
4215;DHT22;2121;48.062;7.850;2023-03-01T03:07:58;-4.60;99.90
4215;DHT22;2121;48.062;7.850;2023-03-01T03:10:28;-4.50;99.90
4215;DHT22;2121;48.062;7.850;2023-03-01T03:13:05;-4.60;99.90
4215;DHT22;2121;48.062;7.850;2023-03-01T03:15:35;-4.60;99.90
4215;DHT22;2121;48.062;7.850;2023-03-01T03:18:02;-4.70;99.90
4215;DHT22;2121;48.062;7.850;2023-03-01T03:20:30;-4.80;99.90
4215;DHT22;2121;48.062;7.850;2023-03-01T03:22:56;-4.80;99.90
4215;DHT22;2121;48.062;7.850;2023-03-01T03:25:24;-4.90;99.90
4215;DHT22;2121;48.062;7.850;2023-03-01T03:27:52;-4.90;99.90
4215;DHT22;2121;48.062;7.850;2023-03-01T03:30:33;-5.00;99.90
4215;DHT22;2121;48.062;7.850;2023-03-01T03:32:59;-5.10;99.90
4215;DHT22;2121;48.062;7.850;2023-03-01T03:35:30;-5.10;99.90
4215;DHT22;2121;48.062;7.850;2023-03-01T03:37:59;-5.10;99.90
4215;DHT22;2121;48.062;7.850;2023-03-01T03:40:39;-5.20;99.90
4215;DHT22;2121;48.062;7.850;2023-03-01T03:43:17;-5.20;99.90
4215;DHT22;2121;48.062;7.850;2023-03-01T03:45:45;-5.20;99.90
4215;DHT22;2121;48.062;7.850;2023-03-01T03:48:12;-5.20;99.90
4215;DHT22;2121;48.062;7.850;2023-03-01T03:50:38;-5.20;99.90
4215;DHT22;2121;48.062;7.850;2023-03-01T03:53:08;-5.20;99.90
4215;DHT22;2121;48.062;7.850;2023-03-01T03:55:37;-5.10;99.90
4215;DHT22;2121;48.062;7.850;2023-03-01T03:58:05;-5.20;99.90
4215;DHT22;2121;48.062;7.850;2023-03-01T04:00:34;-5.20;99.90
4215;DHT22;2121;48.062;7.850;2023-03-01T04:03:05;-5.10;99.90
4215;DHT22;2121;48.062;7.850;2023-03-01T04:05:31;-5.10;99.90
4215;DHT22;2121;48.062;7.850;2023-03-01T04:07:57;-5.10;99.90
4215;DHT22;2121;48.062;7.850;2023-03-01T04:10:32;-5.10;99.90
4215;DHT22;2121;48.062;7.850;2023-03-01T04:13:12;-5.20;99.90
4215;DHT22;2121;48.062;7.850;2023-03-01T04:15:39;-5.20;99.90
4215;DHT22;2121;48.062;7.850;2023-03-01T04:18:06;-5.20;99.90
4215;DHT22;2121;48.062;7.850;2023-03-01T04:20:34;-5.00;99.90
4215;DHT22;2121;48.062;7.850;2023-03-01T04:25:45;-5.00;99.90
4215;DHT22;2121;48.062;7.850;2023-03-01T04:28:24;-5.00;99.90
4215;DHT22;2121;48.062;7.850;2023-03-01T04:30:56;-5.00;99.90
4215;DHT22;2121;48.062;7.850;2023-03-01T04:33:24;-4.90;99.90
4215;DHT22;2121;48.062;7.850;2023-03-01T04:35:51;-4.90;99.90
4215;DHT22;2121;48.062;7.850;2023-03-01T04:38:18;-4.80;99.90
4215;DHT22;2121;48.062;7.850;2023-03-01T04:40:45;-4.70;99.90
4215;DHT22;2121;48.062;7.850;2023-03-01T04:43:11;-4.70;99.90
4215;DHT22;2121;48.062;7.850;2023-03-01T04:45:39;-4.70;99.90
4215;DHT22;2121;48.062;7.850;2023-03-01T04:48:05;-4.60;99.90
4215;DHT22;2121;48.062;7.850;2023-03-01T04:50:31;-4.50;99.90
4215;DHT22;2121;48.062;7.850;2023-03-01T04:52:57;-4.60;99.90
4215;DHT22;2121;48.062;7.850;2023-03-01T04:55:27;-4.60;99.90
4215;DHT22;2121;48.062;7.850;2023-03-01T04:57:54;-4.60;99.90
4215;DHT22;2121;48.062;7.850;2023-03-01T05:00:20;-4.60;99.90
4215;DHT22;2121;48.062;7.850;2023-03-01T05:02:47;-4.60;99.90
4215;DHT22;2121;48.062;7.850;2023-03-01T05:05:14;-4.70;99.90
4215;DHT22;2121;48.062;7.850;2023-03-01T05:07:40;-4.70;99.90
4215;DHT22;2121;48.062;7.850;2023-03-01T05:10:06;-4.70;99.90
4215;DHT22;2121;48.062;7.850;2023-03-01T05:12:32;-4.70;99.90
4215;DHT22;2121;48.062;7.850;2023-03-01T05:14:58;-4.60;99.90
4215;DHT22;2121;48.062;7.850;2023-03-01T05:17:24;-4.60;99.90
4215;DHT22;2121;48.062;7.850;2023-03-01T05:19:49;-4.50;99.90
4215;DHT22;2121;48.062;7.850;2023-03-01T05:22:15;-4.40;99.90
4215;DHT22;2121;48.062;7.850;2023-03-01T05:24:41;-4.30;99.90
4215;DHT22;2121;48.062;7.850;2023-03-01T05:27:07;-4.20;99.90
4215;DHT22;2121;48.062;7.850;2023-03-01T05:29:33;-4.00;99.90
4215;DHT22;2121;48.062;7.850;2023-03-01T05:32:01;-4.00;99.90
4215;DHT22;2121;48.062;7.850;2023-03-01T05:34:35;-3.90;99.90
4215;DHT22;2121;48.062;7.850;2023-03-01T05:37:02;-3.70;99.90
4215;DHT22;2121;48.062;7.850;2023-03-01T05:39:29;-3.60;99.90
4215;DHT22;2121;48.062;7.850;2023-03-01T05:41:57;-3.50;99.90
4215;DHT22;2121;48.062;7.850;2023-03-01T05:44:26;-3.60;99.90
4215;DHT22;2121;48.062;7.850;2023-03-01T05:46:53;-3.60;99.90
4215;DHT22;2121;48.062;7.850;2023-03-01T05:49:19;-3.60;99.90
4215;DHT22;2121;48.062;7.850;2023-03-01T05:51:49;-3.50;99.90
4215;DHT22;2121;48.062;7.850;2023-03-01T05:54:17;-3.40;99.90
4215;DHT22;2121;48.062;7.850;2023-03-01T05:56:44;-3.30;99.90
4215;DHT22;2121;48.062;7.850;2023-03-01T05:59:10;-3.40;99.90
4215;DHT22;2121;48.062;7.850;2023-03-01T06:01:37;-3.40;99.90
4215;DHT22;2121;48.062;7.850;2023-03-01T06:04:04;-3.30;99.90
4215;DHT22;2121;48.062;7.850;2023-03-01T06:06:33;-3.20;99.90
4215;DHT22;2121;48.062;7.850;2023-03-01T06:08:59;-3.10;99.90
4215;DHT22;2121;48.062;7.850;2023-03-01T06:11:25;-3.10;99.90
4215;DHT22;2121;48.062;7.850;2023-03-01T06:13:51;-3.20;99.90
4215;DHT22;2121;48.062;7.850;2023-03-01T06:16:16;-3.20;99.90
4215;DHT22;2121;48.062;7.850;2023-03-01T06:18:42;-3.10;99.90
4215;DHT22;2121;48.062;7.850;2023-03-01T06:21:08;-3.00;99.90
4215;DHT22;2121;48.062;7.850;2023-03-01T06:23:35;-2.90;99.90
4215;DHT22;2121;48.062;7.850;2023-03-01T06:26:05;-2.80;99.90
4215;DHT22;2121;48.062;7.850;2023-03-01T06:28:32;-2.70;99.90
4215;DHT22;2121;48.062;7.850;2023-03-01T06:30:58;-2.70;99.90
4215;DHT22;2121;48.062;7.850;2023-03-01T06:33:24;-2.50;99.90
4215;DHT22;2121;48.062;7.850;2023-03-01T06:35:51;-2.50;99.90
4215;DHT22;2121;48.062;7.850;2023-03-01T06:38:17;-2.50;99.90
4215;DHT22;2121;48.062;7.850;2023-03-01T06:40:44;-2.60;99.90
4215;DHT22;2121;48.062;7.850;2023-03-01T06:43:10;-2.60;99.90
4215;DHT22;2121;48.062;7.850;2023-03-01T06:45:36;-2.50;99.90
4215;DHT22;2121;48.062;7.850;2023-03-01T06:48:06;-2.30;99.90
4215;DHT22;2121;48.062;7.850;2023-03-01T06:50:34;-2.20;99.90
4215;DHT22;2121;48.062;7.850;2023-03-01T06:53:00;-2.10;99.90
4215;DHT22;2121;48.062;7.850;2023-03-01T06:55:26;-2.00;99.90
4215;DHT22;2121;48.062;7.850;2023-03-01T06:57:56;-2.00;99.90
4215;DHT22;2121;48.062;7.850;2023-03-01T07:00:26;-2.00;99.90
4215;DHT22;2121;48.062;7.850;2023-03-01T07:02:53;-1.90;99.90
4215;DHT22;2121;48.062;7.850;2023-03-01T07:05:20;-1.80;99.90
4215;DHT22;2121;48.062;7.850;2023-03-01T07:07:45;-1.70;99.90
4215;DHT22;2121;48.062;7.850;2023-03-01T07:10:12;-1.70;99.90
4215;DHT22;2121;48.062;7.850;2023-03-01T07:12:37;-1.60;99.90
4215;DHT22;2121;48.062;7.850;2023-03-01T07:15:04;-1.50;99.90
4215;DHT22;2121;48.062;7.850;2023-03-01T07:17:30;-1.30;99.90
4215;DHT22;2121;48.062;7.850;2023-03-01T07:19:56;-1.20;99.90
4215;DHT22;2121;48.062;7.850;2023-03-01T07:22:22;-1.10;99.90
4215;DHT22;2121;48.062;7.850;2023-03-01T07:24:48;-0.90;99.90
4215;DHT22;2121;48.062;7.850;2023-03-01T07:27:13;-1.00;99.90
4215;DHT22;2121;48.062;7.850;2023-03-01T07:29:39;-1.00;99.90
4215;DHT22;2121;48.062;7.850;2023-03-01T07:32:06;-0.90;99.90
4215;DHT22;2121;48.062;7.850;2023-03-01T07:34:32;-0.80;99.90
4215;DHT22;2121;48.062;7.850;2023-03-01T07:36:57;-0.70;99.90
4215;DHT22;2121;48.062;7.850;2023-03-01T07:39:23;-0.80;99.90
4215;DHT22;2121;48.062;7.850;2023-03-01T07:41:49;-0.80;99.90
4215;DHT22;2121;48.062;7.850;2023-03-01T07:44:15;-0.80;99.90
4215;DHT22;2121;48.062;7.850;2023-03-01T07:46:43;-1.00;99.90
4215;DHT22;2121;48.062;7.850;2023-03-01T07:49:09;-1.00;99.90
4215;DHT22;2121;48.062;7.850;2023-03-01T07:51:35;-1.00;99.90
4215;DHT22;2121;48.062;7.850;2023-03-01T07:54:01;-0.80;99.90
4215;DHT22;2121;48.062;7.850;2023-03-01T07:56:26;-0.60;99.90
4215;DHT22;2121;48.062;7.850;2023-03-01T07:58:52;-0.50;99.90
4215;DHT22;2121;48.062;7.850;2023-03-01T08:01:20;-0.50;99.90
4215;DHT22;2121;48.062;7.850;2023-03-01T08:03:47;-0.50;99.90
4215;DHT22;2121;48.062;7.850;2023-03-01T08:06:16;-0.40;99.90
4215;DHT22;2121;48.062;7.850;2023-03-01T08:08:42;-0.20;99.90
4215;DHT22;2121;48.062;7.850;2023-03-01T08:11:10;-0.10;99.90
4215;DHT22;2121;48.062;7.850;2023-03-01T08:13:37;-0.20;99.90
4215;DHT22;2121;48.062;7.850;2023-03-01T08:16:08;-0.40;99.90
4215;DHT22;2121;48.062;7.850;2023-03-01T08:18:37;-0.40;99.90
4215;DHT22;2121;48.062;7.850;2023-03-01T08:21:15;-0.40;99.90
4215;DHT22;2121;48.062;7.850;2023-03-01T08:23:42;-0.40;99.90
4215;DHT22;2121;48.062;7.850;2023-03-01T08:26:13;-0.40;99.90
4215;DHT22;2121;48.062;7.850;2023-03-01T08:28:44;-0.30;99.90
4215;DHT22;2121;48.062;7.850;2023-03-01T08:31:19;0.00;99.90
4215;DHT22;2121;48.062;7.850;2023-03-01T08:33:50;0.00;99.90
4215;DHT22;2121;48.062;7.850;2023-03-01T08:36:21;0.00;99.90
4215;DHT22;2121;48.062;7.850;2023-03-01T08:38:48;0.10;99.90
4215;DHT22;2121;48.062;7.850;2023-03-01T08:41:14;0.20;99.90
4215;DHT22;2121;48.062;7.850;2023-03-01T08:43:40;0.10;99.90
4215;DHT22;2121;48.062;7.850;2023-03-01T08:46:06;0.10;99.90
4215;DHT22;2121;48.062;7.850;2023-03-01T08:48:32;0.30;99.90
4215;DHT22;2121;48.062;7.850;2023-03-01T08:51:10;0.40;99.90
4215;DHT22;2121;48.062;7.850;2023-03-01T08:53:41;0.50;99.90
4215;DHT22;2121;48.062;7.850;2023-03-01T08:56:07;0.60;99.90
4215;DHT22;2121;48.062;7.850;2023-03-01T08:58:34;0.60;99.90
4215;DHT22;2121;48.062;7.850;2023-03-01T09:01:00;0.60;99.90
4215;DHT22;2121;48.062;7.850;2023-03-01T09:03:27;0.60;99.90
4215;DHT22;2121;48.062;7.850;2023-03-01T09:05:53;0.50;99.90
4215;DHT22;2121;48.062;7.850;2023-03-01T09:08:25;0.50;99.90
4215;DHT22;2121;48.062;7.850;2023-03-01T09:10:51;1.00;99.90
4215;DHT22;2121;48.062;7.850;2023-03-01T09:13:16;1.20;99.90
4215;DHT22;2121;48.062;7.850;2023-03-01T09:15:42;1.40;99.90
4215;DHT22;2121;48.062;7.850;2023-03-01T09:18:08;1.60;99.90
4215;DHT22;2121;48.062;7.850;2023-03-01T09:20:34;1.50;99.90
4215;DHT22;2121;48.062;7.850;2023-03-01T09:22:59;1.30;99.90
4215;DHT22;2121;48.062;7.850;2023-03-01T09:25:26;1.40;99.90
4215;DHT22;2121;48.062;7.850;2023-03-01T09:27:52;1.60;99.90
4215;DHT22;2121;48.062;7.850;2023-03-01T09:30:19;1.90;99.90
4215;DHT22;2121;48.062;7.850;2023-03-01T09:32:45;1.80;99.90
4215;DHT22;2121;48.062;7.850;2023-03-01T09:35:11;1.50;99.90
4215;DHT22;2121;48.062;7.850;2023-03-01T09:37:37;1.60;99.90
4215;DHT22;2121;48.062;7.850;2023-03-01T09:40:09;1.50;99.90
4215;DHT22;2121;48.062;7.850;2023-03-01T09:42:48;1.60;99.90
4215;DHT22;2121;48.062;7.850;2023-03-01T09:45:33;1.90;99.90
4215;DHT22;2121;48.062;7.850;2023-03-01T09:48:01;1.90;99.90
4215;DHT22;2121;48.062;7.850;2023-03-01T09:50:33;2.00;99.90
4215;DHT22;2121;48.062;7.850;2023-03-01T09:53:03;1.80;99.90
4215;DHT22;2121;48.062;7.850;2023-03-01T10:00:56;1.90;99.90
4215;DHT22;2121;48.062;7.850;2023-03-01T10:03:36;2.00;99.90
4215;DHT22;2121;48.062;7.850;2023-03-01T10:06:08;2.30;99.90
4215;DHT22;2121;48.062;7.850;2023-03-01T10:08:46;2.30;99.90
4215;DHT22;2121;48.062;7.850;2023-03-01T10:11:23;2.10;99.90
4215;DHT22;2121;48.062;7.850;2023-03-01T10:13:59;2.30;99.90
4215;DHT22;2121;48.062;7.850;2023-03-01T10:16:53;2.50;99.90
4215;DHT22;2121;48.062;7.850;2023-03-01T10:19:40;2.70;99.90
4215;DHT22;2121;48.062;7.850;2023-03-01T10:22:15;3.00;99.90
4215;DHT22;2121;48.062;7.850;2023-03-01T10:24:47;3.00;99.90
4215;DHT22;2121;48.062;7.850;2023-03-01T10:27:25;2.80;99.90
4215;DHT22;2121;48.062;7.850;2023-03-01T10:30:16;2.40;99.90
4215;DHT22;2121;48.062;7.850;2023-03-01T10:32:49;2.40;99.90
4215;DHT22;2121;48.062;7.850;2023-03-01T10:35:19;2.40;99.90
4215;DHT22;2121;48.062;7.850;2023-03-01T10:37:58;2.70;99.90
4215;DHT22;2121;48.062;7.850;2023-03-01T10:40:33;2.70;99.90
4215;DHT22;2121;48.062;7.850;2023-03-01T10:43:04;2.90;99.90
4215;DHT22;2121;48.062;7.850;2023-03-01T10:45:37;2.90;99.90
4215;DHT22;2121;48.062;7.850;2023-03-01T10:48:23;2.70;99.90
4215;DHT22;2121;48.062;7.850;2023-03-01T10:51:06;2.60;99.90
4215;DHT22;2121;48.062;7.850;2023-03-01T10:58:36;3.00;99.90
4215;DHT22;2121;48.062;7.850;2023-03-01T11:01:30;3.10;99.90
4215;DHT22;2121;48.062;7.850;2023-03-01T11:06:37;3.70;99.90
4215;DHT22;2121;48.062;7.850;2023-03-01T11:09:24;3.70;99.90
4215;DHT22;2121;48.062;7.850;2023-03-01T11:12:00;3.60;99.90
4215;DHT22;2121;48.062;7.850;2023-03-01T11:14:50;3.60;99.90
4215;DHT22;2121;48.062;7.850;2023-03-01T11:23:03;4.10;99.90
4215;DHT22;2121;48.062;7.850;2023-03-01T11:25:36;4.20;99.90
4215;DHT22;2121;48.062;7.850;2023-03-01T11:28:05;4.80;99.70
4215;DHT22;2121;48.062;7.850;2023-03-01T11:36:50;5.30;98.20
4215;DHT22;2121;48.062;7.850;2023-03-01T11:39:43;5.50;96.80
4215;DHT22;2121;48.062;7.850;2023-03-01T11:45:12;6.20;96.00
4215;DHT22;2121;48.062;7.850;2023-03-01T11:51:23;6.30;95.70
4215;DHT22;2121;48.062;7.850;2023-03-01T11:56:52;7.20;94.80
4215;DHT22;2121;48.062;7.850;2023-03-01T12:02:35;8.80;93.20
4215;DHT22;2121;48.062;7.850;2023-03-01T12:08:23;8.70;91.30
4215;DHT22;2121;48.062;7.850;2023-03-01T12:20:21;7.20;92.00
4215;DHT22;2121;48.062;7.850;2023-03-01T12:26:17;7.50;92.60
4215;DHT22;2121;48.062;7.850;2023-03-01T12:51:14;9.50;88.40
4215;DHT22;2121;48.062;7.850;2023-03-01T12:53:53;9.30;88.20
4215;DHT22;2121;48.062;7.850;2023-03-01T12:56:23;9.30;88.50
4215;DHT22;2121;48.062;7.850;2023-03-01T13:15:35;10.60;83.80
4215;DHT22;2121;48.062;7.850;2023-03-01T13:20:49;11.80;83.00
4215;DHT22;2121;48.062;7.850;2023-03-01T13:26:20;12.00;81.40
4215;DHT22;2121;48.062;7.850;2023-03-01T13:28:46;11.80;81.40
4215;DHT22;2121;48.062;7.850;2023-03-01T13:46:53;9.40;84.60
4215;DHT22;2121;48.062;7.850;2023-03-01T13:49:26;9.10;86.30
4215;DHT22;2121;48.062;7.850;2023-03-01T13:51:53;8.70;86.40
4215;DHT22;2121;48.062;7.850;2023-03-01T13:54:29;9.00;86.80
4215;DHT22;2121;48.062;7.850;2023-03-01T13:56:59;8.90;85.90
4215;DHT22;2121;48.062;7.850;2023-03-01T13:59:26;8.90;86.70
4215;DHT22;2121;48.062;7.850;2023-03-01T14:01:54;8.50;85.70
4215;DHT22;2121;48.062;7.850;2023-03-01T14:04:33;8.30;86.70
4215;DHT22;2121;48.062;7.850;2023-03-01T14:07:22;8.00;87.30
4215;DHT22;2121;48.062;7.850;2023-03-01T14:09:54;8.10;87.80
4215;DHT22;2121;48.062;7.850;2023-03-01T14:15:34;8.90;88.00
4215;DHT22;2121;48.062;7.850;2023-03-01T14:18:07;9.00;87.10
4215;DHT22;2121;48.062;7.850;2023-03-01T14:20:45;8.90;86.70
4215;DHT22;2121;48.062;7.850;2023-03-01T14:23:18;8.90;87.00
4215;DHT22;2121;48.062;7.850;2023-03-01T14:25:48;9.20;87.70
4215;DHT22;2121;48.062;7.850;2023-03-01T14:28:23;9.70;86.80
4215;DHT22;2121;48.062;7.850;2023-03-01T14:30:53;10.10;84.20
4215;DHT22;2121;48.062;7.850;2023-03-01T14:38:40;10.70;82.80
4215;DHT22;2121;48.062;7.850;2023-03-01T14:41:08;11.20;82.60
4215;DHT22;2121;48.062;7.850;2023-03-01T14:43:37;11.50;81.20
4215;DHT22;2121;48.062;7.850;2023-03-01T14:46:05;11.70;80.90
4215;DHT22;2121;48.062;7.850;2023-03-01T14:48:31;11.70;80.00
4215;DHT22;2121;48.062;7.850;2023-03-01T14:50:57;11.20;81.00
4215;DHT22;2121;48.062;7.850;2023-03-01T14:53:26;10.30;81.60
4215;DHT22;2121;48.062;7.850;2023-03-01T14:55:55;9.70;84.90
4215;DHT22;2121;48.062;7.850;2023-03-01T14:58:27;9.80;84.50
4215;DHT22;2121;48.062;7.850;2023-03-01T15:00:59;9.50;83.60
4215;DHT22;2121;48.062;7.850;2023-03-01T15:03:41;9.80;84.80
4215;DHT22;2121;48.062;7.850;2023-03-01T15:06:15;10.00;84.50
4215;DHT22;2121;48.062;7.850;2023-03-01T15:08:47;9.60;86.00
4215;DHT22;2121;48.062;7.850;2023-03-01T15:11:27;9.00;87.50
4215;DHT22;2121;48.062;7.850;2023-03-01T15:13:54;8.60;87.40
4215;DHT22;2121;48.062;7.850;2023-03-01T15:16:31;8.60;87.90
4215;DHT22;2121;48.062;7.850;2023-03-01T15:19:06;8.60;87.60
4215;DHT22;2121;48.062;7.850;2023-03-01T15:21:33;8.60;89.10
4215;DHT22;2121;48.062;7.850;2023-03-01T15:26:55;8.40;88.50
4215;DHT22;2121;48.062;7.850;2023-03-01T15:29:28;8.50;89.00
4215;DHT22;2121;48.062;7.850;2023-03-01T15:32:01;8.40;89.30
4215;DHT22;2121;48.062;7.850;2023-03-01T15:34:36;9.00;88.60
4215;DHT22;2121;48.062;7.850;2023-03-01T15:37:33;10.00;85.50
4215;DHT22;2121;48.062;7.850;2023-03-01T15:40:36;10.80;84.50
4215;DHT22;2121;48.062;7.850;2023-03-01T15:43:45;11.10;83.00
4215;DHT22;2121;48.062;7.850;2023-03-01T15:46:23;11.20;83.20
4215;DHT22;2121;48.062;7.850;2023-03-01T15:48:55;11.30;82.40
4215;DHT22;2121;48.062;7.850;2023-03-01T15:51:33;11.30;82.30
4215;DHT22;2121;48.062;7.850;2023-03-01T15:54:09;11.50;82.60
4215;DHT22;2121;48.062;7.850;2023-03-01T15:56:44;11.90;82.20
4215;DHT22;2121;48.062;7.850;2023-03-01T15:59:11;10.80;82.10
4215;DHT22;2121;48.062;7.850;2023-03-01T16:01:38;10.20;83.50
4215;DHT22;2121;48.062;7.850;2023-03-01T16:04:04;9.40;85.60
4215;DHT22;2121;48.062;7.850;2023-03-01T16:06:30;9.90;86.20
4215;DHT22;2121;48.062;7.850;2023-03-01T16:08:56;10.20;83.60
4215;DHT22;2121;48.062;7.850;2023-03-01T16:11:22;10.10;84.50
4215;DHT22;2121;48.062;7.850;2023-03-01T16:13:48;9.80;85.00
4215;DHT22;2121;48.062;7.850;2023-03-01T16:16:16;9.40;86.00
4215;DHT22;2121;48.062;7.850;2023-03-01T16:18:46;9.30;86.00
4215;DHT22;2121;48.062;7.850;2023-03-01T16:21:23;9.10;86.00
4215;DHT22;2121;48.062;7.850;2023-03-01T16:23:49;9.00;86.40
4215;DHT22;2121;48.062;7.850;2023-03-01T16:26:16;8.90;86.80
4215;DHT22;2121;48.062;7.850;2023-03-01T16:28:43;8.90;87.30
4215;DHT22;2121;48.062;7.850;2023-03-01T16:31:10;8.40;87.80
4215;DHT22;2121;48.062;7.850;2023-03-01T16:33:36;7.80;88.40
4215;DHT22;2121;48.062;7.850;2023-03-01T16:36:11;7.40;89.60
4215;DHT22;2121;48.062;7.850;2023-03-01T16:38:37;6.90;90.00
4215;DHT22;2121;48.062;7.850;2023-03-01T16:41:04;6.60;90.40
4215;DHT22;2121;48.062;7.850;2023-03-01T16:43:30;6.30;90.60
4215;DHT22;2121;48.062;7.850;2023-03-01T16:45:57;6.20;90.90
4215;DHT22;2121;48.062;7.850;2023-03-01T16:48:24;6.10;90.90
4215;DHT22;2121;48.062;7.850;2023-03-01T16:50:58;5.90;91.10
4215;DHT22;2121;48.062;7.850;2023-03-01T16:53:25;5.80;91.20
4215;DHT22;2121;48.062;7.850;2023-03-01T16:55:55;5.80;91.20
4215;DHT22;2121;48.062;7.850;2023-03-01T16:58:22;5.70;91.30
4215;DHT22;2121;48.062;7.850;2023-03-01T17:00:50;5.60;91.30
4215;DHT22;2121;48.062;7.850;2023-03-01T17:03:19;5.60;91.40
4215;DHT22;2121;48.062;7.850;2023-03-01T17:05:45;5.60;91.40
4215;DHT22;2121;48.062;7.850;2023-03-01T17:08:11;5.50;91.50
4215;DHT22;2121;48.062;7.850;2023-03-01T17:10:37;5.50;91.60
4215;DHT22;2121;48.062;7.850;2023-03-01T17:13:03;5.40;91.60
4215;DHT22;2121;48.062;7.850;2023-03-01T17:15:28;5.30;91.70
4215;DHT22;2121;48.062;7.850;2023-03-01T17:17:54;5.30;91.90
4215;DHT22;2121;48.062;7.850;2023-03-01T17:20:20;5.30;91.90
4215;DHT22;2121;48.062;7.850;2023-03-01T17:22:46;5.20;92.00
4215;DHT22;2121;48.062;7.850;2023-03-01T17:25:12;5.20;92.10
4215;DHT22;2121;48.062;7.850;2023-03-01T17:27:39;5.20;92.10
4215;DHT22;2121;48.062;7.850;2023-03-01T17:30:06;5.10;92.20
4215;DHT22;2121;48.062;7.850;2023-03-01T17:32:33;5.00;92.20
4215;DHT22;2121;48.062;7.850;2023-03-01T17:34:59;5.00;92.30
4215;DHT22;2121;48.062;7.850;2023-03-01T17:37:24;4.90;92.30
4215;DHT22;2121;48.062;7.850;2023-03-01T17:39:50;4.90;92.40
4215;DHT22;2121;48.062;7.850;2023-03-01T17:42:16;4.90;92.50
4215;DHT22;2121;48.062;7.850;2023-03-01T17:44:41;4.80;92.50
4215;DHT22;2121;48.062;7.850;2023-03-01T17:47:08;4.70;92.70
4215;DHT22;2121;48.062;7.850;2023-03-01T17:49:34;4.70;92.90
4215;DHT22;2121;48.062;7.850;2023-03-01T17:52:00;4.60;93.00
4215;DHT22;2121;48.062;7.850;2023-03-01T17:54:26;4.60;93.10
4215;DHT22;2121;48.062;7.850;2023-03-01T17:56:52;4.60;93.20
4215;DHT22;2121;48.062;7.850;2023-03-01T17:59:20;4.50;93.20
4215;DHT22;2121;48.062;7.850;2023-03-01T18:01:46;4.40;93.20
4215;DHT22;2121;48.062;7.850;2023-03-01T18:04:12;4.30;93.20
4215;DHT22;2121;48.062;7.850;2023-03-01T18:06:38;4.20;93.60
4215;DHT22;2121;48.062;7.850;2023-03-01T18:09:05;4.10;93.90
4215;DHT22;2121;48.062;7.850;2023-03-01T18:11:33;3.90;94.10
4215;DHT22;2121;48.062;7.850;2023-03-01T18:14:00;4.00;94.70
4215;DHT22;2121;48.062;7.850;2023-03-01T18:16:26;3.90;94.70
4215;DHT22;2121;48.062;7.850;2023-03-01T18:18:54;3.80;94.90
4215;DHT22;2121;48.062;7.850;2023-03-01T18:21:20;3.80;95.20
4215;DHT22;2121;48.062;7.850;2023-03-01T18:23:47;3.90;95.20
4215;DHT22;2121;48.062;7.850;2023-03-01T18:26:14;3.90;95.10
4215;DHT22;2121;48.062;7.850;2023-03-01T18:28:43;3.80;95.30
4215;DHT22;2121;48.062;7.850;2023-03-01T18:31:13;3.80;95.30
4215;DHT22;2121;48.062;7.850;2023-03-01T18:33:43;3.80;95.30
4215;DHT22;2121;48.062;7.850;2023-03-01T18:36:24;3.80;95.50
4215;DHT22;2121;48.062;7.850;2023-03-01T18:38:55;3.80;95.60